Bellevue, MI (49021)

6:41 PM EDT on September 20, 2014 (GMT -0400)
KMIBELLE7 | Change Station
CLOSE
Current Station
Personal Weather Station
Location: Bellevue, MI
Elevation: 863 ft
Nearby Weather Stations

Elev 863 ft 42.44 °N, 85.01 °W | Updated 12 minutes ago

Rain
Rain
68.9 °F
Feels Like 68.9 °F
N
3.7
Wind Variable Wind from SSW

Today
High -- | Low -- °F
--% Chance of Precip.
Yesterday
High -- | Low -- °F
Precip. -- in
7:25 AM 7:40 PM
Waning Crescent, 10% visible
Pressure 29.78 in
Visibility 10.0 miles
Clouds Scattered Clouds 12000 ft
Dew Point 64 °F
Humidity 85%
Rainfall 0.00 in
Snow Depth Not available.
UV 0 out of 12
Pollen 2.10 out of 12
Ozone Good
Flu Activity Not available.
METAR KFPK 202235Z AUTO 21007KT 10SM SCT120 22/19 A2978 RMK AO2 T02220185

More Conditions Fewer Conditions

Pressure 29.78 in
Visibility 10.0 miles
Clouds Scattered Clouds 12000 ft
Dew Point 64 °F
Humidity 85%
Rainfall 0.00 in
Snow Depth Not available.
UV 0 out of 12
Pollen 2.10 out of 12
Ozone Good
Flu Activity Not available.
METAR KFPK 202235Z AUTO 21007KT 10SM SCT120 22/19 A2978 RMK AO2 T02220185

More Conditions Fewer Conditions

10-Day Weather Forecast

Almanac

Astronomy

Sep. 20, 2014 Rise Set
Actual Time 7:25 AM EDT 7:40 PM EDT
Civil Twilight 6:57 AM EDT 8:08 PM EDT
Nautical Twilight 6:24 AM EDT 8:41 PM EDT
Astronomical Twilight 5:50 AM EDT 9:15 PM EDT
Moon 4:00 AM EDT 5:46 PM EDT
Length of Visible Light 13h 11m
Length of Day
12h 15m
Tomorrow will be 2m 50s shorter.
Waning Crescent, 10% of the Moon is Illuminated
Today
Waning Crescent
Sep 24
New
Oct 1
First Quarter
Oct 8
Full
Oct 15
Last Quarter

Today's Extremes

State Highs State Lows

Community

WunderPhotos

Upload Photos

1,754,970 photos uploaded!

WunderBlogs® & News

Nearby

Air Quality

  Air Quality AQ Index Pollutant
Yesterday Good
OZONE
Current Good
OZONE
Saturday Good
OZONE
Saturday Good
PM2.5
Sunday Good
OZONE
Sunday Good
PM2.5
Monday Good
OZONE
Monday Good
PM2.5

Snow Depth

Station Depth Elevation
No new snow has been reported.

Earthquake Activity

City Distance Mag. Time & Date
No recent earthquake activity has been reported nearby.
Minimum magnitude displayed is 2.5.

Coastal Water Temperatures

Place Temperature
No Stations Reporting

Nearby Weather Stations